Time;durP1;ratioP1;P1;durP2;ratioP2;P2;SDS_P1;SDS_P2;PMS_P1;PMS_P2;Temp;Humidity;BMP_temperature;BMP_pressure;BME280_temperature;BME280_humidity;BME280_pressure;Samples;Min_cycle;Max_cycle;Signal;HPM_P1;HPM_P2
2021/05/30 00:00:10;;;;;;;6.47;3.92;;;384.10;2329.60;;;;;;4996955;28;20050;-77
2021/05/30 00:02:36;;;;;;;5.10;3.50;;;384.10;2329.60;;;;;;4993018;28;20396;-65
2021/05/30 00:05:04;;;;;;;5.80;3.50;;;384.10;2329.60;;;;;;5000251;28;20097;-64
2021/05/30 00:07:30;;;;;;;5.57;3.20;;;384.10;2329.60;;;;;;4996157;28;20021;-69
2021/05/30 00:09:56;;;;;;;4.88;3.35;;;384.10;2329.60;;;;;;4989510;28;20026;-69
2021/05/30 00:12:22;;;;;;;5.30;3.00;;;384.10;2329.60;;;;;;4992483;28;20022;-66
2021/05/30 00:14:48;;;;;;;4.78;3.25;;;384.10;2329.60;;;;;;4989815;28;20027;-66
2021/05/30 00:17:14;;;;;;;6.07;3.20;;;384.10;2329.60;;;;;;4991590;28;20026;-74
2021/05/30 00:19:41;;;;;;;4.25;3.03;;;384.20;2329.60;;;;;;4990303;28;20045;-64
2021/05/30 00:22:07;;;;;;;4.78;3.17;;;384.20;2329.60;;;;;;4972145;28;20103;-65
2021/05/30 00:24:32;;;;;;;5.38;3.10;;;384.20;2329.60;;;;;;4974274;28;20476;-68
2021/05/30 00:26:58;;;;;;;5.90;3.15;;;384.30;2329.60;;;;;;4973238;28;20027;-72
2021/05/30 00:29:25;;;;;;;5.30;3.03;;;384.30;2329.60;;;;;;4974535;28;20069;-70
2021/05/30 00:31:50;;;;;;;5.82;3.20;;;384.30;2329.60;;;;;;4974864;28;20061;-64
2021/05/30 00:34:16;;;;;;;4.15;2.90;;;384.30;2329.60;;;;;;4972513;28;20054;-65
2021/05/30 00:36:42;;;;;;;5.32;3.10;;;384.30;2329.60;;;;;;4975963;28;20076;-65
2021/05/30 00:39:08;;;;;;;4.20;2.97;;;384.40;2329.60;;;;;;4972398;28;20031;-69
2021/05/30 00:41:33;;;;;;;5.43;3.05;;;384.40;2329.60;;;;;;4971209;28;20043;-66
2021/05/30 00:43:59;;;;;;;5.45;3.10;;;384.40;2329.60;;;;;;4972926;28;20510;-64
2021/05/30 00:46:25;;;;;;;4.75;3.10;;;384.40;2329.60;;;;;;4983786;28;20042;-64
2021/05/30 00:48:51;;;;;;;4.65;2.88;;;384.40;2329.60;;;;;;4986738;28;20141;-66
2021/05/30 00:51:18;;;;;;;4.75;3.08;;;384.40;2329.60;;;;;;4986422;28;20383;-65
2021/05/30 00:53:44;;;;;;;4.55;2.95;;;384.40;2329.60;;;;;;4984600;28;20045;-65
2021/05/30 00:56:15;;;;;;;5.80;3.22;;;384.40;2329.60;;;;;;4988595;28;20035;-64
2021/05/30 00:58:41;;;;;;;3.70;3.17;;;384.40;2329.60;;;;;;4986459;28;20026;-65
2021/05/30 01:01:07;;;;;;;5.78;3.30;;;384.50;2329.60;;;;;;4986035;28;20456;-70
2021/05/30 01:03:37;;;;;;;5.78;3.08;;;384.50;2329.60;;;;;;4985744;28;20019;-66
2021/05/30 01:06:04;;;;;;;5.18;3.10;;;384.50;2329.60;;;;;;4989273;28;20415;-66
2021/05/30 01:08:30;;;;;;;5.18;3.13;;;384.40;2329.60;;;;;;4991447;28;20109;-65
2021/05/30 01:11:00;;;;;;;4.22;2.80;;;384.50;2329.60;;;;;;4991379;28;20027;-65
2021/05/30 01:13:27;;;;;;;5.63;3.30;;;384.40;2329.60;;;;;;4989169;28;20027;-65
2021/05/30 01:15:54;;;;;;;5.03;3.22;;;384.40;2329.60;;;;;;4990980;28;20034;-64
2021/05/30 01:18:22;;;;;;;5.43;3.17;;;384.40;2329.60;;;;;;4987547;28;20384;-65
2021/05/30 01:20:49;;;;;;;6.38;3.10;;;384.40;2329.60;;;;;;4991200;28;20105;-65
2021/05/30 01:23:16;;;;;;;4.63;2.97;;;384.40;2329.60;;;;;;4989321;28;20038;-65
2021/05/30 01:25:42;;;;;;;6.15;3.05;;;384.40;2329.60;;;;;;4991605;28;20034;-64
2021/05/30 01:28:08;;;;;;;5.68;3.30;;;384.40;2329.60;;;;;;4990390;28;20030;-66
2021/05/30 01:30:35;;;;;;;5.95;3.30;;;384.40;2329.60;;;;;;4989018;28;20038;-64
2021/05/30 01:33:01;;;;;;;4.72;3.30;;;384.30;2329.60;;;;;;4991094;28;20026;-68
2021/05/30 01:35:28;;;;;;;4.88;3.30;;;384.30;2329.60;;;;;;4988413;28;20472;-69
2021/05/30 01:37:53;;;;;;;5.85;2.90;;;384.40;2329.60;;;;;;4990937;28;20030;-69
2021/05/30 01:40:21;;;;;;;3.88;2.90;;;384.40;2329.60;;;;;;4988522;28;20018;-76
2021/05/30 01:42:49;;;;;;;5.15;3.10;;;384.40;2329.60;;;;;;4989424;28;20050;-65
2021/05/30 01:45:17;;;;;;;4.75;2.70;;;384.40;2329.60;;;;;;4990318;28;20127;-65
2021/05/30 01:47:44;;;;;;;4.47;3.00;;;384.40;2329.60;;;;;;4989161;28;20035;-66
2021/05/30 01:50:16;;;;;;;4.25;2.78;;;384.40;2329.60;;;;;;4990746;28;20033;-65
2021/05/30 01:52:43;;;;;;;3.72;2.60;;;384.40;2329.60;;;;;;4988479;28;20023;-65
2021/05/30 01:55:17;;;;;;;5.20;2.80;;;384.40;2329.60;;;;;;4990477;28;20022;-65
2021/05/30 01:57:46;;;;;;;4.50;2.83;;;384.40;2329.60;;;;;;4988305;28;20018;-66
2021/05/30 02:00:13;;;;;;;5.13;3.00;;;384.40;2329.60;;;;;;4990378;28;20027;-66
2021/05/30 02:02:39;;;;;;;4.72;2.90;;;384.40;2329.60;;;;;;4989484;28;20050;-67
2021/05/30 02:05:06;;;;;;;4.70;3.00;;;384.30;2329.60;;;;;;4989160;28;20022;-65
2021/05/30 02:07:33;;;;;;;3.97;2.88;;;384.40;2329.60;;;;;;4981862;28;20364;-67
2021/05/30 02:10:00;;;;;;;5.40;3.13;;;384.30;2329.60;;;;;;4981382;28;20091;-64
2021/05/30 02:12:28;;;;;;;4.25;2.80;;;384.30;2329.60;;;;;;4989738;28;20034;-66
2021/05/30 02:14:57;;;;;;;5.63;2.80;;;384.30;2329.60;;;;;;4987305;28;20113;-66
2021/05/30 02:17:24;;;;;;;5.10;2.72;;;384.30;2329.60;;;;;;4990403;28;20052;-66
2021/05/30 02:19:50;;;;;;;5.32;2.90;;;384.30;2329.60;;;;;;4988479;28;20018;-65
2021/05/30 02:23:06;;;;;;;5.00;2.80;;;384.30;2329.60;;;;;;4989427;28;20023;-66
2021/05/30 02:25:32;;;;;;;4.63;2.55;;;384.20;2329.60;;;;;;4980665;28;20534;-66
2021/05/30 02:27:58;;;;;;;3.55;2.40;;;384.20;2329.60;;;;;;4989373;28;20026;-67
2021/05/30 02:30:24;;;;;;;4.45;2.50;;;384.10;2329.60;;;;;;4989632;28;20023;-66
2021/05/30 02:32:50;;;;;;;5.88;2.80;;;384.10;2329.60;;;;;;4987573;28;20066;-67
2021/05/30 02:35:17;;;;;;;4.22;2.78;;;384.10;2329.60;;;;;;4989646;28;20076;-66
2021/05/30 02:37:43;;;;;;;4.97;2.63;;;384.10;2329.60;;;;;;4987804;28;20119;-66
2021/05/30 02:40:09;;;;;;;5.32;2.60;;;384.10;2329.60;;;;;;4988729;28;20479;-70
2021/05/30 02:42:35;;;;;;;3.85;2.45;;;384.10;2329.60;;;;;;4987733;28;20414;-67
2021/05/30 02:45:02;;;;;;;4.97;2.83;;;384.10;2329.60;;;;;;4989172;28;20109;-67
2021/05/30 02:47:28;;;;;;;5.18;2.72;;;384.10;2329.60;;;;;;4990195;28;20026;-65
2021/05/30 02:49:54;;;;;;;4.10;2.60;;;384.10;2329.60;;;;;;4987089;28;20509;-67
2021/05/30 02:52:20;;;;;;;5.78;2.90;;;384.10;2329.60;;;;;;4990238;28;20113;-66
2021/05/30 02:54:46;;;;;;;4.22;2.65;;;384.10;2329.60;;;;;;4986157;28;20373;-70
2021/05/30 02:57:11;;;;;;;6.45;2.55;;;384.10;2329.60;;;;;;4989813;28;20044;-66
2021/05/30 02:59:37;;;;;;;4.18;2.60;;;384.10;2329.60;;;;;;4988030;28;20033;-66
2021/05/30 03:02:03;;;;;;;3.97;2.40;;;384.10;2329.60;;;;;;4988474;28;20037;-66
2021/05/30 03:04:29;;;;;;;5.72;2.67;;;384.10;2329.60;;;;;;4989857;28;20476;-67
2021/05/30 03:06:54;;;;;;;4.75;2.90;;;384.10;2329.60;;;;;;4987407;28;20026;-69
2021/05/30 03:09:20;;;;;;;3.67;2.47;;;384.10;2329.60;;;;;;4989436;28;20073;-66
2021/05/30 03:11:46;;;;;;;4.93;2.60;;;384.10;2329.60;;;;;;4987729;28;20033;-69
2021/05/30 03:14:12;;;;;;;4.28;2.60;;;384.10;2329.60;;;;;;4989787;28;20029;-67
2021/05/30 03:16:38;;;;;;;4.22;2.70;;;384.10;2329.60;;;;;;4988918;28;20105;-67
2021/05/30 03:19:03;;;;;;;3.92;2.63;;;384.10;2329.60;;;;;;4987758;28;20030;-66
2021/05/30 03:21:29;;;;;;;4.45;2.80;;;384.10;2329.60;;;;;;4990009;28;20025;-66
2021/05/30 03:23:55;;;;;;;4.10;2.60;;;384.10;2329.60;;;;;;4986543;28;20030;-65
2021/05/30 03:26:20;;;;;;;4.43;2.85;;;384.00;2329.60;;;;;;4989132;28;20026;-66
2021/05/30 03:28:46;;;;;;;3.90;2.55;;;384.00;2329.60;;;;;;4986967;28;20034;-67
2021/05/30 03:31:12;;;;;;;5.07;2.78;;;384.00;2329.60;;;;;;4988893;28;20080;-67
2021/05/30 03:33:38;;;;;;;4.07;2.67;;;384.00;2329.60;;;;;;4988624;28;20026;-66
2021/05/30 03:36:07;;;;;;;4.07;2.85;;;384.00;2329.60;;;;;;4986834;28;20434;-67
2021/05/30 03:38:33;;;;;;;5.03;2.70;;;384.00;2329.60;;;;;;4988820;28;20434;-66
2021/05/30 03:41:04;;;;;;;3.92;2.65;;;384.10;2329.60;;;;;;4986436;28;20080;-69
2021/05/30 03:43:30;;;;;;;4.40;2.70;;;384.10;2329.60;;;;;;4992428;28;20026;-65
2021/05/30 03:45:56;;;;;;;6.15;2.80;;;384.00;2329.60;;;;;;4990032;28;20644;-68
2021/05/30 03:48:22;;;;;;;5.68;3.05;;;384.10;2329.60;;;;;;4992085;28;20041;-67
2021/05/30 03:50:49;;;;;;;3.95;2.85;;;384.00;2329.60;;;;;;4992040;28;20030;-67
2021/05/30 03:53:20;;;;;;;4.70;2.88;;;384.10;2329.60;;;;;;4990328;28;20073;-70
2021/05/30 03:55:47;;;;;;;5.25;3.05;;;384.10;2329.60;;;;;;4992152;28;20023;-66
2021/05/30 03:58:14;;;;;;;7.10;3.05;;;384.10;2329.60;;;;;;4989374;28;20031;-67
2021/05/30 04:00:41;;;;;;;4.20;2.90;;;384.00;2329.60;;;;;;4992292;28;20026;-69
2021/05/30 04:03:08;;;;;;;4.30;3.00;;;384.00;2329.60;;;;;;4989724;28;20030;-65
2021/05/30 04:05:34;;;;;;;5.45;3.03;;;359.30;2329.60;;;;;;4992014;28;20044;-65
2021/05/30 04:08:00;;;;;;;5.03;3.40;;;359.30;2329.60;;;;;;4992044;28;20026;-65
2021/05/30 04:10:26;;;;;;;4.78;2.97;;;359.20;2329.60;;;;;;4990581;28;20033;-64
2021/05/30 04:12:52;;;;;;;4.93;3.22;;;359.20;2329.60;;;;;;4992357;28;20053;-65
2021/05/30 04:15:19;;;;;;;5.95;3.00;;;359.20;2329.60;;;;;;4989552;28;20046;-64
2021/05/30 04:17:45;;;;;;;4.18;2.85;;;359.30;2329.60;;;;;;4992061;28;20076;-65
2021/05/30 04:20:17;;;;;;;4.78;3.00;;;384.00;2329.60;;;;;;4989418;28;20484;-64
2021/05/30 04:22:44;;;;;;;5.47;2.92;;;384.10;2329.60;;;;;;4991429;28;20457;-64
2021/05/30 04:25:11;;;;;;;4.78;3.10;;;384.20;2329.60;;;;;;4990314;28;20033;-65
2021/05/30 04:27:37;;;;;;;4.40;2.97;;;384.20;2329.60;;;;;;4990343;28;20407;-65
2021/05/30 04:30:05;;;;;;;4.55;3.15;;;384.30;2329.60;;;;;;4991602;28;20041;-64
2021/05/30 04:32:31;;;;;;;5.35;3.10;;;384.40;2329.60;;;;;;4989020;28;20031;-65
2021/05/30 04:34:56;;;;;;;6.13;3.67;;;384.50;2329.60;;;;;;4990857;28;20152;-65
2021/05/30 04:37:22;;;;;;;7.22;3.13;;;384.70;2329.60;;;;;;4989138;28;20038;-65
2021/05/30 04:39:48;;;;;;;5.10;3.13;;;384.80;2329.60;;;;;;4990717;28;20029;-66
2021/05/30 04:42:14;;;;;;;7.00;3.00;;;384.90;2329.60;;;;;;4989617;28;20049;-65
2021/05/30 04:44:40;;;;;;;4.50;2.90;;;384.80;2329.60;;;;;;4989936;28;20388;-65
2021/05/30 04:47:05;;;;;;;4.90;3.03;;;384.90;2329.60;;;;;;4991466;28;20387;-65
2021/05/30 04:49:31;;;;;;;4.68;3.08;;;409.60;2355.20;;;;;;4989269;28;20030;-64
2021/05/30 04:51:57;;;;;;;4.20;2.90;;;409.60;2355.20;;;;;;4991218;28;20025;-64
2021/05/30 04:54:22;;;;;;;5.57;3.10;;;409.60;2355.20;;;;;;4988825;28;20030;-65
2021/05/30 04:56:48;;;;;;;4.65;3.00;;;409.70;2355.20;;;;;;4990575;28;20018;-64
2021/05/30 04:59:14;;;;;;;4.30;3.00;;;409.70;2355.20;;;;;;4990719;28;20031;-64
2021/05/30 05:01:39;;;;;;;7.10;3.30;;;409.80;2355.20;;;;;;4988929;28;20476;-63
2021/05/30 05:04:06;;;;;;;6.00;3.10;;;409.80;2355.20;;;;;;4991081;28;20032;-65
2021/05/30 05:06:31;;;;;;;4.80;3.20;;;409.80;2355.20;;;;;;4989519;28;20033;-65
2021/05/30 05:08:57;;;;;;;9.05;3.42;;;409.90;2355.20;;;;;;4991430;28;20031;-63
2021/05/30 05:11:23;;;;;;;4.40;3.15;;;409.90;2355.20;;;;;;4989187;28;20029;-64
2021/05/30 05:13:48;;;;;;;5.97;3.35;;;410.00;2355.20;;;;;;4991868;28;20459;-64
2021/05/30 05:16:14;;;;;;;6.20;3.13;;;409.90;2355.20;;;;;;4991139;28;20057;-64
2021/05/30 05:18:40;;;;;;;6.00;3.05;;;409.90;2355.20;;;;;;4989313;28;20027;-65
2021/05/30 05:21:06;;;;;;;4.70;3.00;;;409.80;2355.20;;;;;;4991182;28;20094;-65
2021/05/30 05:23:32;;;;;;;4.60;3.03;;;409.80;2355.20;;;;;;4989079;28;20026;-65
2021/05/30 05:26:03;;;;;;;6.03;2.80;;;409.80;2355.20;;;;;;4991553;28;20338;-64
2021/05/30 05:28:30;;;;;;;6.78;2.97;;;409.80;2355.20;;;;;;4989043;28;20049;-67
2021/05/30 05:30:57;;;;;;;6.82;3.60;;;409.80;2355.20;;;;;;4991054;28;20034;-70
2021/05/30 05:33:23;;;;;;;6.22;3.17;;;409.80;2355.20;;;;;;4990798;28;20018;-65
2021/05/30 05:35:49;;;;;;;4.53;2.90;;;409.80;2355.20;;;;;;4989423;28;20029;-65
2021/05/30 05:38:15;;;;;;;4.85;2.70;;;409.80;2355.20;;;;;;4990954;28;20105;-64
2021/05/30 05:40:42;;;;;;;4.43;2.75;;;409.90;2355.20;;;;;;4988652;28;20142;-65
2021/05/30 05:43:08;;;;;;;5.60;2.80;;;409.90;2355.20;;;;;;4990726;28;20050;-63
2021/05/30 05:45:35;;;;;;;4.57;2.80;;;409.90;2355.20;;;;;;4988856;28;20385;-65
2021/05/30 05:48:01;;;;;;;6.40;2.90;;;409.90;2355.20;;;;;;4991194;28;20075;-64
2021/05/30 05:50:28;;;;;;;5.35;2.80;;;409.90;2355.20;;;;;;4990250;28;20056;-64
2021/05/30 05:52:54;;;;;;;4.38;2.65;;;410.00;2355.20;;;;;;4988912;28;20492;-68
2021/05/30 05:55:21;;;;;;;5.07;2.90;;;410.00;2355.20;;;;;;4990754;28;20365;-65
2021/05/30 05:57:48;;;;;;;5.30;2.75;;;410.00;2355.20;;;;;;4988594;28;20384;-64
2021/05/30 06:00:17;;;;;;;4.70;2.70;;;410.00;2355.20;;;;;;4990706;28;20025;-63
2021/05/30 06:02:46;;;;;;;4.15;2.80;;;410.00;2355.20;;;;;;4988641;28;20384;-64
2021/05/30 06:05:14;;;;;;;4.22;2.75;;;410.00;2355.20;;;;;;4990273;28;20038;-65
2021/05/30 06:07:40;;;;;;;4.53;2.80;;;410.00;2355.20;;;;;;4990135;28;20034;-64
2021/05/30 06:10:06;;;;;;;4.47;2.85;;;410.00;2355.20;;;;;;4988580;28;20042;-64
2021/05/30 06:12:32;;;;;;;3.70;2.70;;;410.00;2355.20;;;;;;4990481;28;20059;-65
2021/05/30 06:14:58;;;;;;;6.00;2.80;;;410.00;2355.20;;;;;;4987790;28;20497;-67
2021/05/30 06:17:23;;;;;;;4.18;2.60;;;410.00;2355.20;;;;;;4990486;28;20046;-63
2021/05/30 06:19:50;;;;;;;4.47;2.58;;;410.00;2355.20;;;;;;4987991;28;20079;-64
2021/05/30 06:22:18;;;;;;;4.70;2.70;;;410.00;2355.20;;;;;;4990635;28;20437;-65
2021/05/30 06:24:45;;;;;;;3.80;2.60;;;410.00;2355.20;;;;;;4989851;28;20475;-65
2021/05/30 06:27:11;;;;;;;3.97;2.60;;;410.00;2355.20;;;;;;4988582;28;20472;-64
2021/05/30 06:29:37;;;;;;;4.20;2.65;;;410.00;2355.20;;;;;;4990569;28;20018;-65
2021/05/30 06:32:03;;;;;;;4.10;2.80;;;410.00;2355.20;;;;;;4987902;28;20022;-65
2021/05/30 06:34:29;;;;;;;4.15;2.90;;;410.10;2355.20;;;;;;4990147;28;20030;-65
2021/05/30 06:36:55;;;;;;;5.70;2.70;;;410.20;2355.20;;;;;;4985339;28;20400;-64
2021/05/30 06:39:22;;;;;;;3.92;2.72;;;410.20;2355.20;;;;;;4975623;28;20472;-65
2021/05/30 06:41:48;;;;;;;4.05;2.70;;;410.20;2355.20;;;;;;4979590;28;20393;-65
2021/05/30 06:44:14;;;;;;;6.22;2.92;;;410.20;2355.20;;;;;;4981383;28;20075;-64
2021/05/30 06:46:39;;;;;;;4.65;2.80;;;410.30;2355.20;;;;;;4979268;28;20488;-65
2021/05/30 06:49:05;;;;;;;4.40;2.60;;;410.30;2355.20;;;;;;4982786;28;20538;-65
2021/05/30 06:51:32;;;;;;;5.80;3.05;;;410.30;2355.20;;;;;;4985330;28;20039;-67
2021/05/30 06:54:02;;;;;;;5.93;3.63;;;410.30;2355.20;;;;;;4978784;28;20053;-65
2021/05/30 06:56:28;;;;;;;5.15;3.30;;;410.30;2355.20;;;;;;4989269;28;20558;-63
2021/05/30 06:58:55;;;;;;;4.82;2.85;;;410.30;2355.20;;;;;;4986739;28;20026;-64
2021/05/30 07:01:22;;;;;;;4.85;2.90;;;410.30;2355.20;;;;;;4984184;28;20025;-64
2021/05/30 07:03:48;;;;;;;4.70;2.90;;;410.30;2355.20;;;;;;4980382;28;20031;-69
2021/05/30 07:06:15;;;;;;;4.93;3.10;;;410.40;2355.20;;;;;;4972360;28;20077;-64
2021/05/30 07:08:42;;;;;;;6.57;3.40;;;410.50;2355.20;;;;;;4982410;28;20026;-76
2021/05/30 07:11:08;;;;;;;6.47;4.28;;;435.20;2355.20;;;;;;4986862;28;20025;-64
2021/05/30 07:13:34;;;;;;;6.97;3.92;;;435.20;2355.20;;;;;;4989363;28;20539;-65
2021/05/30 07:16:00;;;;;;;4.20;3.00;;;435.20;2355.20;;;;;;4977846;28;20492;-70
2021/05/30 07:18:26;;;;;;;6.95;3.00;;;435.20;2355.20;;;;;;4982801;28;20023;-67
2021/05/30 07:20:53;;;;;;;6.43;3.90;;;435.40;2355.20;;;;;;4975950;28;20073;-69
2021/05/30 07:23:20;;;;;;;4.55;3.30;;;435.50;2355.20;;;;;;4982420;28;20015;-74
2021/05/30 07:25:46;;;;;;;5.07;3.15;;;435.60;2355.20;;;;;;4974797;28;20041;-70
2021/05/30 07:28:12;;;;;;;4.40;3.05;;;435.80;2355.20;;;;;;4982039;28;20476;-71
2021/05/30 07:30:37;;;;;;;6.05;3.00;;;436.00;2355.20;;;;;;4990179;28;20030;-69
2021/05/30 07:33:04;;;;;;;4.72;2.75;;;436.00;2355.20;;;;;;4991979;28;20023;-64
2021/05/30 07:35:31;;;;;;;4.28;3.00;;;435.90;2355.20;;;;;;4990600;28;20039;-70
2021/05/30 07:37:58;;;;;;;4.82;3.22;;;436.00;2355.20;;;;;;4987581;28;20097;-70
2021/05/30 07:40:25;;;;;;;7.88;3.10;;;436.10;2355.20;;;;;;4990216;28;20041;-68
2021/05/30 07:42:51;;;;;;;5.57;3.10;;;436.10;2355.20;;;;;;4989879;28;20393;-68
2021/05/30 07:45:18;;;;;;;5.25;3.20;;;436.00;2355.20;;;;;;4989525;28;20033;-67
2021/05/30 07:47:44;;;;;;;4.70;3.38;;;435.90;2355.20;;;;;;4992431;28;20053;-67
2021/05/30 07:50:12;;;;;;;5.95;3.45;;;435.80;2355.20;;;;;;4991817;28;20443;-68
2021/05/30 07:52:38;;;;;;;5.43;3.22;;;435.70;2355.20;;;;;;4990826;28;20030;-67
2021/05/30 07:55:05;;;;;;;5.38;3.63;;;435.70;2355.20;;;;;;4989098;28;20037;-69
2021/05/30 07:57:31;;;;;;;4.72;3.40;;;435.50;2355.20;;;;;;4986125;28;20031;-74
2021/05/30 07:59:57;;;;;;;6.15;3.72;;;435.50;2355.20;;;;;;4975920;28;20038;-64
2021/05/30 08:02:23;;;;;;;6.68;3.70;;;435.50;2355.20;;;;;;4984123;28;20027;-67
2021/05/30 08:04:49;;;;;;;5.43;3.60;;;435.60;2355.20;;;;;;4985237;28;20031;-64
2021/05/30 08:07:15;;;;;;;5.50;3.70;;;435.60;2355.20;;;;;;4991556;28;20022;-66
2021/05/30 08:09:41;;;;;;;4.82;3.47;;;435.60;2355.20;;;;;;4985035;28;20120;-66
2021/05/30 08:12:07;;;;;;;8.50;4.78;;;435.60;2355.20;;;;;;4978527;28;20087;-66
2021/05/30 08:14:33;;;;;;;22.05;10.48;;;435.70;2355.20;;;;;;4987423;28;20061;-70
2021/05/30 08:16:59;;;;;;;20.08;9.65;;;435.80;2355.20;;;;;;4991857;28;20068;-65
2021/05/30 08:19:24;;;;;;;11.57;7.55;;;435.80;2355.20;;;;;;4988514;28;20034;-65
2021/05/30 08:21:51;;;;;;;5.93;4.60;;;436.00;2355.20;;;;;;4988721;28;20026;-71
2021/05/30 08:24:16;;;;;;;8.90;5.45;;;436.10;2355.20;;;;;;4980040;28;20064;-67
2021/05/30 08:26:42;;;;;;;8.80;6.32;;;461.00;2380.80;;;;;;4983367;28;20066;-67
2021/05/30 08:29:08;;;;;;;7.65;5.70;;;461.10;2380.80;;;;;;4980011;28;20026;-66
2021/05/30 08:31:34;;;;;;;5.78;3.95;;;461.40;2380.80;;;;;;4988493;28;20487;-66
2021/05/30 08:34:00;;;;;;;4.68;3.20;;;461.70;2380.80;;;;;;4987579;28;20027;-66
2021/05/30 08:36:28;;;;;;;4.78;2.90;;;486.40;2380.80;;;;;;4982380;28;20034;-66
2021/05/30 08:38:54;;;;;;;5.38;2.92;;;486.40;2380.80;;;;;;4980066;28;20025;-69
2021/05/30 08:41:20;;;;;;;5.95;3.17;;;486.40;2380.80;;;;;;4980164;28;20054;-69
2021/05/30 08:43:46;;;;;;;5.30;2.97;;;486.40;2380.80;;;;;;4985014;28;20022;-68
2021/05/30 08:46:12;;;;;;;4.53;3.10;;;486.40;2380.80;;;;;;4988074;28;20035;-64
2021/05/30 08:48:38;;;;;;;6.18;3.65;;;486.40;2380.80;;;;;;4984030;28;20114;-63
2021/05/30 08:51:05;;;;;;;4.80;3.53;;;486.40;2380.80;;;;;;4988198;28;20093;-62
2021/05/30 08:53:40;;;;;;;4.90;2.90;;;486.60;2380.80;;;;;;4985104;28;20034;-64
2021/05/30 08:56:07;;;;;;;5.95;2.88;;;486.80;2380.80;;;;;;4980275;28;20027;-66
2021/05/30 08:58:37;;;;;;;4.38;2.60;;;487.00;2380.80;;;;;;4988501;28;20034;-63
2021/05/30 09:01:07;;;;;;;;;;;487.10;2380.80;;;;;;4985836;28;20125;-64
2021/05/30 09:03:32;;;;;;;5.05;2.75;;;487.10;2380.80;;;;;;4986015;28;20390;-66
2021/05/30 09:06:17;;;;;;;4.38;2.97;;;487.20;2380.80;;;;;;4986356;28;20062;-65
2021/05/30 09:08:43;;;;;;;5.13;2.67;;;487.30;2380.80;;;;;;4990169;28;20022;-66
2021/05/30 09:11:09;;;;;;;6.07;3.50;;;512.10;2380.80;;;;;;4985719;28;20031;-72
2021/05/30 09:13:54;;;;;;;7.72;4.35;;;512.60;2380.80;;;;;;4988672;28;20113;-65
2021/05/30 09:16:21;;;;;;;7.15;3.90;;;537.60;2406.40;;;;;;4986316;28;20030;-64
2021/05/30 09:18:48;;;;;;;5.47;3.20;;;537.90;2406.40;;;;;;4985368;28;20098;-64
2021/05/30 09:21:14;;;;;;;4.63;2.78;;;538.30;2406.40;;;;;;4984951;28;20027;-64
2021/05/30 09:23:46;;;;;;;5.38;3.00;;;563.30;2432.00;;;;;;4985979;28;20057;-65
2021/05/30 09:26:17;;;;;;;6.35;2.95;;;563.60;2355.20;;;;;;4976446;28;20034;-65
2021/05/30 09:29:09;;;;;;;5.13;2.70;;;564.00;2278.40;;;;;;4977472;28;20354;-68
2021/05/30 09:31:58;;;;;;;4.03;2.63;;;563.90;2227.20;;;;;;5004899;28;20042;-69
2021/05/30 09:34:28;;;;;;;4.32;2.88;;;588.90;2150.40;;;;;;4988462;28;20058;-67
2021/05/30 09:36:55;;;;;;;5.13;2.65;;;589.10;2150.40;;;;;;4991222;28;20065;-66
2021/05/30 09:39:40;;;;;;;4.05;2.50;;;589.10;2150.40;;;;;;4988280;28;20441;-68
2021/05/30 09:42:26;;;;;;;6.78;5.10;;;589.50;2048.00;;;;;;4989341;28;20400;-70
2021/05/30 09:45:09;;;;;;;5.03;2.97;;;614.40;1996.80;;;;;;4984084;28;20030;-70
2021/05/30 09:47:39;;;;;;;4.53;3.00;;;615.10;1945.60;;;;;;4987225;28;20026;-75
2021/05/30 09:50:08;;;;;;;3.72;2.47;;;615.20;1868.80;;;;;;4972094;28;20392;-65
2021/05/30 09:52:41;;;;;;;3.85;2.55;;;640.30;1843.20;;;;;;4976824;28;20031;-65
2021/05/30 09:55:26;;;;;;;5.07;2.30;;;640.50;1817.60;;;;;;4974936;28;20084;-64
2021/05/30 09:58:14;;;;;;;4.95;2.50;;;640.50;1843.20;;;;;;4985948;28;20027;-70
2021/05/30 10:00:41;;;;;;;4.30;2.60;;;640.00;1792.00;;;;;;4988775;28;20384;-65
2021/05/30 10:03:08;;;;;;;4.57;2.83;;;640.10;1792.00;;;;;;4985408;28;20492;-64
2021/05/30 10:05:35;;;;;;;4.43;2.72;;;640.00;1843.20;;;;;;4990141;28;20484;-64
2021/05/30 10:08:01;;;;;;;3.75;2.55;;;615.20;1843.20;;;;;;4981711;28;20484;-65
2021/05/30 10:10:29;;;;;;;3.92;2.67;;;615.30;1843.20;;;;;;4980190;28;20185;-65
2021/05/30 10:12:54;;;;;;;4.47;2.65;;;615.20;1843.20;;;;;;4975351;28;20037;-69
2021/05/30 10:15:21;;;;;;;5.57;3.00;;;615.20;1843.20;;;;;;4980165;28;20022;-64
2021/05/30 10:17:50;;;;;;;4.53;3.22;;;615.20;1894.40;;;;;;4976679;28;20404;-70
2021/05/30 10:20:21;;;;;;;3.75;2.63;;;615.20;1894.40;;;;;;4981572;28;20077;-69
2021/05/30 10:22:52;;;;;;;3.75;2.50;;;614.80;1843.20;;;;;;4977038;28;20029;-65
2021/05/30 10:25:33;;;;;;;3.53;2.10;;;614.60;1843.20;;;;;;4987928;28;20018;-65
2021/05/30 10:28:16;;;;;;;3.42;1.90;;;614.40;1740.80;;;;;;4979806;28;20034;-73
2021/05/30 10:30:50;;;;;;;3.70;2.30;;;589.60;1740.80;;;;;;4977230;28;20033;-73
2021/05/30 10:33:27;;;;;;;2.92;1.83;;;589.60;1766.40;;;;;;4979538;28;20018;-68
2021/05/30 10:35:56;;;;;;;3.33;2.10;;;589.40;1715.20;;;;;;4985240;28;20618;-65
2021/05/30 10:38:43;;;;;;;4.38;2.10;;;589.40;1740.80;;;;;;4988580;28;20075;-65
2021/05/30 10:41:20;;;;;;;3.55;2.20;;;589.40;1715.20;;;;;;4979394;28;20795;-66
2021/05/30 10:43:47;;;;;;;3.70;2.30;;;589.20;1766.40;;;;;;4981463;28;20031;-64
2021/05/30 10:46:13;;;;;;;3.40;2.22;;;589.00;1792.00;;;;;;4970075;28;20078;-65
2021/05/30 10:48:40;;;;;;;3.55;2.50;;;564.10;1766.40;;;;;;4979985;28;20023;-64
2021/05/30 10:53:52;;;;;;;7.55;4.57;;;563.70;1868.80;;;;;;4981076;28;20034;-70
2021/05/30 10:56:30;;;;;;;4.20;2.00;;;563.40;1868.80;;;;;;4984668;28;20484;-63
2021/05/30 10:59:11;;;;;;;5.30;3.08;;;537.90;1792.00;;;;;;4983757;28;20037;-65
2021/05/30 11:01:39;;;;;;;13.27;7.82;;;537.70;1766.40;;;;;;4978644;28;20372;-65
2021/05/30 11:04:27;;;;;;;16.65;8.63;;;538.00;1817.60;;;;;;4989474;28;20041;-65
2021/05/30 11:06:55;;;;;;;7.38;5.55;;;538.10;1792.00;;;;;;4989315;28;20472;-70
2021/05/30 11:09:22;;;;;;;5.85;3.97;;;538.40;1792.00;;;;;;4989289;28;20038;-66
2021/05/30 11:12:22;;;;;;;5.63;3.85;;;538.50;1817.60;;;;;;4983558;28;20485;-63
2021/05/30 11:15:06;;;;;;;3.95;3.10;;;563.40;1843.20;;;;;;4977729;28;20128;-65
2021/05/30 11:17:40;;;;;;;4.05;3.20;;;563.60;1868.80;;;;;;4985774;28;20035;-68
2021/05/30 11:20:09;;;;;;;3.13;2.40;;;563.40;1817.60;;;;;;4979549;28;20030;-65
2021/05/30 11:22:51;;;;;;;5.30;3.28;;;538.50;1792.00;;;;;;4982007;28;20053;-63
2021/05/30 11:25:20;;;;;;;6.13;2.70;;;538.50;1894.40;;;;;;4983679;28;20031;-69
2021/05/30 11:28:01;;;;;;;7.15;3.75;;;538.50;1920.00;;;;;;4986663;28;20471;-66
2021/05/30 11:30:43;;;;;;;4.05;2.63;;;538.00;2022.40;;;;;;4985572;28;20030;-65
2021/05/30 11:33:12;;;;;;;4.78;2.80;;;537.60;2124.80;;;;;;4984580;28;20098;-64
2021/05/30 11:35:38;;;;;;;4.50;3.00;;;512.60;2150.40;;;;;;4985476;28;20033;-68
2021/05/30 11:38:04;;;;;;;6.32;2.83;;;512.20;2227.20;;;;;;4986430;28;20051;-69
2021/05/30 11:40:34;;;;;;;6.75;2.92;;;487.30;2304.00;;;;;;4989744;28;20436;-64
2021/05/30 11:43:11;;;;;;;4.40;2.95;;;487.10;2355.20;;;;;;4974806;28;20098;-70
2021/05/30 11:45:39;;;;;;;4.90;3.00;;;486.80;2380.80;;;;;;4973364;28;20023;-70
2021/05/30 11:48:07;;;;;;;3.70;2.60;;;486.80;2380.80;;;;;;4971058;28;20065;-71
2021/05/30 11:50:35;;;;;;;3.97;2.78;;;486.80;2380.80;;;;;;4978820;28;20102;-67
2021/05/30 11:53:23;;;;;;;4.28;3.05;;;487.00;2380.80;;;;;;4972901;28;20027;-66
2021/05/30 11:55:50;;;;;;;4.20;3.00;;;487.10;2380.80;;;;;;4968634;28;20027;-65
2021/05/30 11:58:15;;;;;;;4.47;2.95;;;487.30;2380.80;;;;;;4971734;28;20039;-70
2021/05/30 12:00:43;;;;;;;3.78;2.97;;;512.30;2355.20;;;;;;4988622;28;20089;-66
2021/05/30 12:03:13;;;;;;;5.07;3.40;;;512.60;2380.80;;;;;;4984461;28;20058;-64
2021/05/30 12:05:40;;;;;;;4.05;3.00;;;512.70;2380.80;;;;;;4995445;28;20048;-65
2021/05/30 12:08:32;;;;;;;5.30;3.30;;;512.60;2278.40;;;;;;4981806;28;20029;-66
2021/05/30 12:11:00;;;;;;;3.72;3.03;;;512.70;2304.00;;;;;;4992197;28;20053;-65
2021/05/30 12:13:28;;;;;;;4.63;2.95;;;512.80;2278.40;;;;;;4991525;28;20030;-66
2021/05/30 12:15:56;;;;;;;5.13;3.22;;;512.40;2227.20;;;;;;4992662;28;20095;-68
2021/05/30 12:18:22;;;;;;;4.60;3.15;;;512.50;2252.80;;;;;;4984539;28;20025;-67
2021/05/30 12:20:50;;;;;;;5.43;3.20;;;512.60;2278.40;;;;;;4993856;28;20541;-67
2021/05/30 12:23:20;;;;;;;3.92;3.17;;;512.50;2252.80;;;;;;4984989;28;20540;-68
2021/05/30 12:25:51;;;;;;;4.72;3.28;;;512.70;2227.20;;;;;;4991842;28;20460;-69